Time,TemperatureF,DewpointF,PressureIn,WindDirection,WindDirectionDegrees,WindSpeedMPH,WindSpeedGustMPH,Humidity,HourlyPrecipIn,Conditions,Clouds,dailyrainin,SolarRadiationWatts/m^2,SoftwareType,DateUTC
2015-07-04 00:01:00,58.1,53.3,29.93,South,190,0.0,0.0,84,0.00,,,0.00,0,Wunderground v.1.15,2015-07-04 05:01:00,
2015-07-04 00:07:00,58.0,53.2,29.93,South,190,0.0,0.0,84,0.00,,,0.00,0,Wunderground v.1.15,2015-07-04 05:07:00,
2015-07-04 00:12:00,57.8,53.0,29.93,South,190,0.0,0.0,84,0.00,,,0.00,0,Wunderground v.1.15,2015-07-04 05:12:00,
2015-07-04 00:17:00,57.6,52.8,29.93,South,190,0.0,0.0,84,0.00,,,0.00,0,Wunderground v.1.15,2015-07-04 05:17:00,
2015-07-04 00:23:00,57.4,52.6,29.92,South,190,0.0,0.0,84,0.00,,,0.00,0,Wunderground v.1.15,2015-07-04 05:23:00,
2015-07-04 00:28:00,57.4,52.9,29.92,South,190,0.0,0.0,85,0.00,,,0.00,0,Wunderground v.1.15,2015-07-04 05:28:00,
2015-07-04 00:38:00,57.2,52.7,29.92,South,190,0.0,0.0,85,0.00,,,0.00,0,Wunderground v.1.15,2015-07-04 05:38:00,
2015-07-04 00:44:00,57.0,52.9,29.92,South,190,0.0,0.0,86,0.00,,,0.00,0,Wunderground v.1.15,2015-07-04 05:44:00,
2015-07-04 00:49:00,57.1,53.3,29.92,South,190,0.0,0.0,87,0.00,,,0.00,0,Wunderground v.1.15,2015-07-04 05:49:00,
2015-07-04 00:54:00,57.1,53.3,29.92,South,190,0.0,0.0,87,0.00,,,0.00,0,Wunderground v.1.15,2015-07-04 05:54:00,
2015-07-04 01:01:00,57.2,53.7,29.92,South,190,0.0,0.0,88,0.00,,,0.00,0,Wunderground v.1.15,2015-07-04 06:01:00,
2015-07-04 01:06:00,57.1,53.6,29.92,South,189,0.0,0.0,88,0.00,,,0.00,0,Wunderground v.1.15,2015-07-04 06:06:00,
2015-07-04 01:11:00,57.0,53.2,29.92,South,190,0.0,0.0,87,0.00,,,0.00,0,Wunderground v.1.15,2015-07-04 06:11:00,
2015-07-04 01:17:00,56.9,53.4,29.92,South,190,0.0,0.0,88,0.00,,,0.00,0,Wunderground v.1.15,2015-07-04 06:17:00,
2015-07-04 01:22:00,56.9,53.4,29.92,South,190,0.0,0.0,88,0.00,,,0.00,0,Wunderground v.1.15,2015-07-04 06:22:00,
2015-07-04 01:27:00,56.9,53.7,29.93,South,190,0.0,0.0,89,0.00,,,0.00,0,Wunderground v.1.15,2015-07-04 06:27:00,
2015-07-04 01:33:00,56.7,53.2,29.93,South,190,0.0,0.0,88,0.00,,,0.00,0,Wunderground v.1.15,2015-07-04 06:33:00,
2015-07-04 01:38:00,56.5,52.7,29.93,South,190,0.0,0.0,87,0.00,,,0.00,0,Wunderground v.1.15,2015-07-04 06:38:00,
2015-07-04 01:43:00,56.4,52.9,29.92,South,190,0.0,0.0,88,0.00,,,0.00,0,Wunderground v.1.15,2015-07-04 06:43:00,
2015-07-04 01:48:00,56.3,52.5,29.93,South,190,0.0,0.0,87,0.00,,,0.00,0,Wunderground v.1.15,2015-07-04 06:48:00,
2015-07-04 01:54:00,56.1,52.3,29.92,South,189,0.0,0.0,87,0.00,,,0.00,0,Wunderground v.1.15,2015-07-04 06:54:00,
2015-07-04 01:59:00,56.0,52.5,29.92,South,190,0.0,0.0,88,0.00,,,0.00,0,Wunderground v.1.15,2015-07-04 06:59:00,
2015-07-04 02:04:00,56.0,52.5,29.93,South,189,0.0,0.0,88,0.00,,,0.00,0,Wunderground v.1.15,2015-07-04 07:04:00,
2015-07-04 02:09:00,56.1,52.9,29.92,South,190,0.0,0.0,89,0.00,,,0.00,0,Wunderground v.1.15,2015-07-04 07:09:00,
2015-07-04 02:14:00,56.1,52.9,29.93,South,190,0.0,0.0,89,0.00,,,0.00,0,Wunderground v.1.15,2015-07-04 07:14:00,
2015-07-04 02:19:00,56.0,52.8,29.93,South,190,0.0,0.0,89,0.00,,,0.00,0,Wunderground v.1.15,2015-07-04 07:19:00,
2015-07-04 02:24:00,55.9,52.4,29.93,South,189,0.0,0.0,88,0.00,,,0.00,0,Wunderground v.1.15,2015-07-04 07:24:00,
2015-07-04 02:29:00,55.7,52.2,29.93,South,190,0.0,0.0,88,0.00,,,0.00,0,Wunderground v.1.15,2015-07-04 07:29:00,
2015-07-04 02:34:00,55.6,52.1,29.93,South,190,0.0,0.0,88,0.00,,,0.00,0,Wunderground v.1.15,2015-07-04 07:34:00,
2015-07-04 02:39:00,55.4,51.9,29.93,South,190,0.0,0.0,88,0.00,,,0.00,0,Wunderground v.1.15,2015-07-04 07:39:00,
2015-07-04 02:44:00,55.3,51.8,29.93,South,190,0.0,0.0,88,0.00,,,0.00,0,Wunderground v.1.15,2015-07-04 07:44:00,
2015-07-04 02:49:00,55.3,52.1,29.93,South,190,0.0,0.0,89,0.00,,,0.00,0,Wunderground v.1.15,2015-07-04 07:49:00,
2015-07-04 02:54:00,55.4,52.2,29.93,South,190,0.0,0.0,89,0.00,,,0.00,0,Wunderground v.1.15,2015-07-04 07:54:00,
2015-07-04 02:59:00,55.3,52.1,29.92,South,190,0.0,0.0,89,0.00,,,0.00,0,Wunderground v.1.15,2015-07-04 07:59:00,
2015-07-04 03:04:00,55.3,52.1,29.93,South,190,0.0,0.0,89,0.00,,,0.00,0,Wunderground v.1.15,2015-07-04 08:04:00,
2015-07-04 03:09:00,55.1,51.9,29.93,South,190,0.0,0.0,89,0.00,,,0.00,0,Wunderground v.1.15,2015-07-04 08:09:00,
2015-07-04 03:14:00,55.0,51.8,29.93,South,190,0.0,0.0,89,0.00,,,0.00,0,Wunderground v.1.15,2015-07-04 08:14:00,
2015-07-04 03:19:00,54.9,51.7,29.93,South,190,0.0,0.0,89,0.00,,,0.00,0,Wunderground v.1.15,2015-07-04 08:19:00,
2015-07-04 03:24:00,54.7,51.2,29.93,South,190,0.0,0.0,88,0.00,,,0.00,0,Wunderground v.1.15,2015-07-04 08:24:00,
2015-07-04 03:29:00,54.7,52.4,29.93,South,189,0.0,0.0,92,0.00,,,0.00,0,Wunderground v.1.15,2015-07-04 08:29:00,
2015-07-04 03:34:00,54.8,51.9,29.92,South,190,0.0,0.0,90,0.00,,,0.00,0,Wunderground v.1.15,2015-07-04 08:34:00,
2015-07-04 03:39:00,54.6,52.3,29.92,South,190,0.0,0.0,92,0.00,,,0.00,0,Wunderground v.1.15,2015-07-04 08:39:00,
2015-07-04 03:44:00,54.5,51.3,29.93,South,189,0.0,0.0,89,0.00,,,0.00,0,Wunderground v.1.15,2015-07-04 08:44:00,
2015-07-04 03:49:00,54.5,51.6,29.93,South,189,0.0,0.0,90,0.00,,,0.00,0,Wunderground v.1.15,2015-07-04 08:49:00,
2015-07-04 03:55:00,54.7,52.1,29.93,South,190,0.0,0.0,91,0.00,,,0.00,0,Wunderground v.1.15,2015-07-04 08:55:00,
2015-07-04 04:00:00,54.7,51.8,29.93,South,190,0.0,0.0,90,0.00,,,0.00,0,Wunderground v.1.15,2015-07-04 09:00:00,
2015-07-04 04:05:00,54.6,51.7,29.93,South,190,0.0,0.0,90,0.00,,,0.00,0,Wunderground v.1.15,2015-07-04 09:05:00,
2015-07-04 04:10:00,54.4,51.5,29.93,South,190,0.0,0.0,90,0.00,,,0.00,0,Wunderground v.1.15,2015-07-04 09:10:00,
2015-07-04 04:15:00,54.3,51.1,29.93,South,190,0.0,0.0,89,0.00,,,0.00,0,Wunderground v.1.15,2015-07-04 09:15:00,
2015-07-04 04:20:00,54.1,50.9,29.93,South,190,0.0,0.0,89,0.00,,,0.00,0,Wunderground v.1.15,2015-07-04 09:20:00,
2015-07-04 04:25:00,54.0,50.8,29.93,South,189,0.0,0.0,89,0.00,,,0.00,0,Wunderground v.1.15,2015-07-04 09:25:00,
2015-07-04 04:30:00,54.0,51.1,29.93,South,190,0.0,0.0,90,0.00,,,0.00,0,Wunderground v.1.15,2015-07-04 09:30:00,
2015-07-04 04:35:00,54.0,51.1,29.93,South,190,0.0,0.0,90,0.00,,,0.00,0,Wunderground v.1.15,2015-07-04 09:35:00,
2015-07-04 04:40:00,53.9,50.7,29.93,South,190,0.0,0.0,89,0.00,,,0.00,0,Wunderground v.1.15,2015-07-04 09:40:00,
2015-07-04 04:45:00,53.8,50.6,29.94,South,190,0.0,0.0,89,0.00,,,0.00,0,Wunderground v.1.15,2015-07-04 09:45:00,
2015-07-04 04:50:00,53.7,50.5,29.94,South,190,0.0,0.0,89,0.00,,,0.00,0,Wunderground v.1.15,2015-07-04 09:50:00,
2015-07-04 04:55:00,53.6,50.4,29.94,South,190,0.0,0.0,89,0.00,,,0.00,0,Wunderground v.1.15,2015-07-04 09:55:00,
2015-07-04 05:00:00,53.6,50.7,29.94,South,190,0.0,0.0,90,0.00,,,0.00,0,Wunderground v.1.15,2015-07-04 10:00:00,
2015-07-04 05:05:00,53.5,50.3,29.94,South,190,0.0,0.0,89,0.00,,,0.00,0,Wunderground v.1.15,2015-07-04 10:05:00,
2015-07-04 05:10:00,53.5,50.6,29.94,South,190,0.0,0.0,90,0.00,,,0.00,0,Wunderground v.1.15,2015-07-04 10:10:00,
2015-07-04 05:15:00,53.7,51.1,29.94,South,190,0.0,0.0,91,0.00,,,0.00,0,Wunderground v.1.15,2015-07-04 10:15:00,
2015-07-04 05:20:00,53.9,51.3,29.94,South,189,0.0,0.0,91,0.00,,,0.00,0,Wunderground v.1.15,2015-07-04 10:20:00,
2015-07-04 05:26:00,54.0,51.4,29.94,South,190,0.0,0.0,91,0.00,,,0.00,0,Wunderground v.1.15,2015-07-04 10:26:00,
2015-07-04 05:31:00,53.9,51.3,29.94,South,190,0.0,0.0,91,0.00,,,0.00,5,Wunderground v.1.15,2015-07-04 10:31:00,
2015-07-04 05:36:00,53.9,51.3,29.94,South,190,0.0,0.0,91,0.00,,,0.00,7,Wunderground v.1.15,2015-07-04 10:36:00,
2015-07-04 05:41:00,53.9,51.3,29.94,South,190,0.0,0.0,91,0.00,,,0.00,11,Wunderground v.1.15,2015-07-04 10:41:00,
2015-07-04 05:46:00,54.0,51.7,29.95,South,190,0.0,0.0,92,0.00,,,0.00,14,Wunderground v.1.15,2015-07-04 10:46:00,
2015-07-04 05:51:00,54.2,51.9,29.95,South,190,0.0,0.0,92,0.00,,,0.00,18,Wunderground v.1.15,2015-07-04 10:51:00,
2015-07-04 05:56:00,54.2,51.9,29.95,South,190,0.0,0.0,92,0.00,,,0.00,21,Wunderground v.1.15,2015-07-04 10:56:00,
2015-07-04 06:01:00,54.2,51.9,29.96,South,190,0.0,0.0,92,0.00,,,0.00,26,Wunderground v.1.15,2015-07-04 11:01:00,
2015-07-04 06:06:00,54.3,52.0,29.96,South,189,0.0,0.0,92,0.00,,,0.00,33,Wunderground v.1.15,2015-07-04 11:06:00,
2015-07-04 06:11:00,54.2,51.9,29.96,South,190,0.0,0.0,92,0.00,,,0.00,39,Wunderground v.1.15,2015-07-04 11:11:00,
2015-07-04 06:16:00,54.3,52.0,29.95,South,190,0.0,0.0,92,0.00,,,0.00,47,Wunderground v.1.15,2015-07-04 11:16:00,
2015-07-04 06:21:00,54.4,52.1,29.96,South,190,0.0,0.0,92,0.00,,,0.00,54,Wunderground v.1.15,2015-07-04 11:21:00,
2015-07-04 06:26:00,54.6,52.3,29.95,South,189,0.0,0.0,92,0.00,,,0.00,65,Wunderground v.1.15,2015-07-04 11:26:00,
2015-07-04 06:31:00,54.7,52.4,29.95,South,190,0.0,0.0,92,0.00,,,0.00,74,Wunderground v.1.15,2015-07-04 11:31:00,
2015-07-04 06:36:00,55.0,53.0,29.95,South,189,0.0,0.0,93,0.00,,,0.00,84,Wunderground v.1.15,2015-07-04 11:36:00,
2015-07-04 06:41:00,55.4,53.4,29.95,South,190,0.0,0.0,93,0.00,,,0.00,97,Wunderground v.1.15,2015-07-04 11:41:00,
2015-07-04 06:46:00,55.9,53.9,29.95,WSW,258,0.0,1.0,93,0.00,,,0.00,113,Wunderground v.1.15,2015-07-04 11:46:00,
2015-07-04 06:51:00,56.4,54.7,29.95,WSW,258,0.0,0.0,94,0.00,,,0.00,127,Wunderground v.1.15,2015-07-04 11:51:00,
2015-07-04 06:56:00,57.0,55.3,29.95,WSW,258,0.0,0.0,94,0.00,,,0.00,137,Wunderground v.1.15,2015-07-04 11:56:00,
2015-07-04 07:02:00,57.6,55.9,29.95,WSW,258,0.0,0.0,94,0.00,,,0.00,146,Wunderground v.1.15,2015-07-04 12:02:00,
2015-07-04 07:07:00,58.1,56.4,29.95,WSW,258,0.0,0.0,94,0.00,,,0.00,153,Wunderground v.1.15,2015-07-04 12:07:00,
2015-07-04 07:12:00,58.3,56.3,29.95,WSW,258,0.0,0.0,93,0.00,,,0.00,169,Wunderground v.1.15,2015-07-04 12:12:00,
2015-07-04 07:17:00,58.5,56.5,29.95,WSW,258,0.0,0.0,93,0.00,,,0.00,172,Wunderground v.1.15,2015-07-04 12:17:00,
2015-07-04 07:22:00,58.9,56.9,29.95,WSW,258,0.0,0.0,93,0.00,,,0.00,186,Wunderground v.1.15,2015-07-04 12:22:00,
2015-07-04 07:27:00,59.4,57.7,29.95,WSW,258,0.0,0.0,94,0.00,,,0.00,200,Wunderground v.1.15,2015-07-04 12:27:00,
2015-07-04 07:32:00,60.0,58.3,29.95,WSW,258,0.0,0.0,94,0.00,,,0.00,216,Wunderground v.1.15,2015-07-04 12:32:00,
2015-07-04 07:37:00,60.6,58.6,29.96,WSW,258,0.0,0.0,93,0.00,,,0.00,230,Wunderground v.1.15,2015-07-04 12:37:00,
2015-07-04 07:42:00,61.2,59.2,29.95,WSW,258,0.0,0.0,93,0.00,,,0.00,241,Wunderground v.1.15,2015-07-04 12:42:00,
2015-07-04 07:47:00,61.9,59.9,29.95,WSW,258,1.0,1.0,93,0.00,,,0.00,255,Wunderground v.1.15,2015-07-04 12:47:00,
2015-07-04 07:52:00,62.3,59.6,29.95,WSW,258,0.0,1.0,91,0.00,,,0.00,269,Wunderground v.1.15,2015-07-04 12:52:00,
2015-07-04 07:57:00,62.9,59.9,29.95,WSW,258,0.0,2.0,90,0.00,,,0.00,288,Wunderground v.1.15,2015-07-04 12:57:00,
2015-07-04 08:02:00,63.5,60.2,29.95,WSW,258,0.0,2.0,89,0.00,,,0.00,309,Wunderground v.1.15,2015-07-04 13:02:00,
2015-07-04 08:07:00,64.0,60.4,29.95,WSW,258,0.0,2.0,88,0.00,,,0.00,327,Wunderground v.1.15,2015-07-04 13:07:00,
2015-07-04 08:12:00,64.7,61.1,29.96,WSW,255,0.0,2.0,88,0.00,,,0.00,345,Wunderground v.1.15,2015-07-04 13:12:00,
2015-07-04 08:17:00,65.2,61.2,29.96,WSW,255,0.0,2.0,87,0.00,,,0.00,357,Wunderground v.1.15,2015-07-04 13:17:00,
2015-07-04 08:22:00,65.9,61.6,29.96,WSW,255,0.0,2.0,86,0.00,,,0.00,367,Wunderground v.1.15,2015-07-04 13:22:00,
2015-07-04 08:27:00,66.5,61.8,29.96,West,267,1.0,2.0,85,0.00,,,0.00,383,Wunderground v.1.15,2015-07-04 13:27:00,
2015-07-04 08:33:00,67.1,62.1,29.96,WNW,285,1.0,4.0,84,0.00,,,0.00,403,Wunderground v.1.15,2015-07-04 13:33:00,
2015-07-04 08:38:00,67.5,62.5,29.96,ESE,120,0.0,4.0,84,0.00,,,0.00,418,Wunderground v.1.15,2015-07-04 13:38:00,
2015-07-04 08:43:00,67.9,62.5,29.95,SSE,162,1.0,2.0,83,0.00,,,0.00,431,Wunderground v.1.15,2015-07-04 13:43:00,
2015-07-04 08:48:00,68.4,63.0,29.95,WSW,252,1.0,3.0,83,0.00,,,0.00,443,Wunderground v.1.15,2015-07-04 13:48:00,
2015-07-04 08:58:00,69.2,62.8,29.96,WSW,254,1.0,3.0,80,0.00,,,0.00,469,Wunderground v.1.15,2015-07-04 13:58:00,
2015-07-04 09:03:00,69.4,63.0,29.96,WSW,250,0.0,3.0,80,0.00,,,0.00,482,Wunderground v.1.15,2015-07-04 14:03:00,
2015-07-04 09:08:00,69.9,63.8,29.96,WSW,250,2.0,3.0,81,0.00,,,0.00,501,Wunderground v.1.15,2015-07-04 14:08:00,
2015-07-04 09:13:00,70.3,63.5,29.96,WSW,250,1.0,3.0,79,0.00,,,0.00,513,Wunderground v.1.15,2015-07-04 14:13:00,
2015-07-04 09:18:00,70.6,63.4,29.96,WSW,250,4.0,4.0,78,0.00,,,0.00,529,Wunderground v.1.15,2015-07-04 14:18:00,
2015-07-04 09:23:00,71.2,64.4,29.96,WSW,250,0.0,2.0,79,0.00,,,0.00,545,Wunderground v.1.15,2015-07-04 14:23:00,
2015-07-04 09:28:00,71.7,64.1,29.96,WSW,242,1.0,5.0,77,0.00,,,0.00,559,Wunderground v.1.15,2015-07-04 14:28:00,
2015-07-04 09:33:00,72.0,64.4,29.96,WNW,297,2.0,3.0,77,0.00,,,0.00,573,Wunderground v.1.15,2015-07-04 14:33:00,
2015-07-04 09:38:00,72.2,64.6,29.96,WNW,297,1.0,3.0,77,0.00,,,0.00,587,Wunderground v.1.15,2015-07-04 14:38:00,
2015-07-04 09:43:00,72.6,65.0,29.96,WNW,297,0.0,3.0,77,0.00,,,0.00,598,Wunderground v.1.15,2015-07-04 14:43:00,
2015-07-04 09:48:00,73.0,65.0,29.96,WNW,302,1.0,5.0,76,0.00,,,0.00,606,Wunderground v.1.15,2015-07-04 14:48:00,
2015-07-04 09:53:00,73.3,64.5,29.96,WNW,300,0.0,3.0,74,0.00,,,0.00,608,Wunderground v.1.15,2015-07-04 14:53:00,
2015-07-04 09:59:00,73.7,65.7,29.96,WNW,300,0.0,3.0,76,0.00,,,0.00,622,Wunderground v.1.15,2015-07-04 14:59:00,
2015-07-04 10:04:00,74.2,65.4,29.96,West,275,2.0,3.0,74,0.00,,,0.00,636,Wunderground v.1.15,2015-07-04 15:04:00,
2015-07-04 10:09:00,74.7,65.5,29.96,West,275,0.0,3.0,73,0.00,,,0.00,647,Wunderground v.1.15,2015-07-04 15:09:00,
2015-07-04 10:14:00,75.0,65.4,29.96,West,272,1.0,3.0,72,0.00,,,0.00,657,Wunderground v.1.15,2015-07-04 15:14:00,
2015-07-04 10:19:00,75.2,65.6,29.96,West,272,0.0,3.0,72,0.00,,,0.00,663,Wunderground v.1.15,2015-07-04 15:19:00,
2015-07-04 10:24:00,75.5,65.0,29.96,West,272,0.0,2.0,70,0.00,,,0.00,679,Wunderground v.1.15,2015-07-04 15:24:00,
2015-07-04 10:29:00,75.7,65.6,29.96,West,271,0.0,4.0,71,0.00,,,0.00,680,Wunderground v.1.15,2015-07-04 15:29:00,
2015-07-04 10:34:00,75.8,64.9,29.96,West,275,1.0,3.0,69,0.00,,,0.00,694,Wunderground v.1.15,2015-07-04 15:34:00,
2015-07-04 10:39:00,75.9,65.0,29.96,WSW,256,1.0,4.0,69,0.00,,,0.00,689,Wunderground v.1.15,2015-07-04 15:39:00,
2015-07-04 10:44:00,76.2,64.4,29.96,SSW,195,1.0,3.0,67,0.00,,,0.00,701,Wunderground v.1.15,2015-07-04 15:44:00,
2015-07-04 10:49:00,76.4,63.8,29.96,WNW,298,2.0,5.0,65,0.00,,,0.00,703,Wunderground v.1.15,2015-07-04 15:49:00,
2015-07-04 10:54:00,76.7,64.5,29.96,WSW,258,1.0,4.0,66,0.00,,,0.00,710,Wunderground v.1.15,2015-07-04 15:54:00,
2015-07-04 10:59:00,76.9,64.7,29.96,WSW,258,0.0,4.0,66,0.00,,,0.00,722,Wunderground v.1.15,2015-07-04 15:59:00,
2015-07-04 11:04:00,77.1,65.3,29.97,WSW,258,4.0,4.0,67,0.00,,,0.00,731,Wunderground v.1.15,2015-07-04 16:04:00,
2015-07-04 11:09:00,77.4,64.7,29.97,West,274,2.0,4.0,65,0.00,,,0.00,742,Wunderground v.1.15,2015-07-04 16:09:00,
2015-07-04 11:14:00,77.7,64.5,29.96,West,274,0.0,3.0,64,0.00,,,0.00,749,Wunderground v.1.15,2015-07-04 16:14:00,
2015-07-04 11:19:00,78.1,65.4,29.96,WNW,284,2.0,4.0,65,0.00,,,0.00,759,Wunderground v.1.15,2015-07-04 16:19:00,
2015-07-04 11:24:00,78.4,66.5,29.96,West,271,0.0,3.0,67,0.00,,,0.00,765,Wunderground v.1.15,2015-07-04 16:24:00,
2015-07-04 11:29:00,78.7,65.9,29.96,West,270,1.0,3.0,65,0.00,,,0.00,772,Wunderground v.1.15,2015-07-04 16:29:00,
2015-07-04 11:34:00,78.6,64.0,29.96,WSW,246,0.0,4.0,61,0.00,,,0.00,772,Wunderground v.1.15,2015-07-04 16:34:00,
2015-07-04 11:39:00,78.6,64.0,29.96,SSW,212,0.0,4.0,61,0.00,,,0.00,784,Wunderground v.1.15,2015-07-04 16:39:00,
2015-07-04 11:44:00,78.7,63.6,29.96,WSW,242,0.0,4.0,60,0.00,,,0.00,795,Wunderground v.1.15,2015-07-04 16:44:00,
2015-07-04 11:49:00,79.1,65.0,29.96,WSW,242,0.0,4.0,62,0.00,,,0.00,802,Wunderground v.1.15,2015-07-04 16:49:00,
2015-07-04 11:54:00,79.2,63.6,29.96,WSW,250,0.0,4.0,59,0.00,,,0.00,798,Wunderground v.1.15,2015-07-04 16:54:00,
2015-07-04 11:59:00,79.3,62.7,29.96,WSW,250,0.0,4.0,57,0.00,,,0.00,795,Wunderground v.1.15,2015-07-04 16:59:00,
2015-07-04 12:04:00,79.4,63.8,29.96,ESE,119,0.0,5.0,59,0.00,,,0.00,796,Wunderground v.1.15,2015-07-04 17:04:00,
2015-07-04 12:09:00,79.5,63.9,29.96,SW,219,0.0,5.0,59,0.00,,,0.00,798,Wunderground v.1.15,2015-07-04 17:09:00,
2015-07-04 12:14:00,79.6,62.5,29.96,WSW,246,3.0,5.0,56,0.00,,,0.00,803,Wunderground v.1.15,2015-07-04 17:14:00,
2015-07-04 12:19:00,79.7,63.6,29.96,WSW,246,0.0,5.0,58,0.00,,,0.00,798,Wunderground v.1.15,2015-07-04 17:19:00,
2015-07-04 12:24:00,79.5,62.4,29.96,WSW,252,0.0,3.0,56,0.00,,,0.00,807,Wunderground v.1.15,2015-07-04 17:24:00,
2015-07-04 12:29:00,79.4,63.8,29.95,WSW,254,0.0,3.0,59,0.00,,,0.00,814,Wunderground v.1.15,2015-07-04 17:29:00,
2015-07-04 12:34:00,79.5,65.3,29.96,SSE,161,0.0,5.0,62,0.00,,,0.00,821,Wunderground v.1.15,2015-07-04 17:34:00,
2015-07-04 12:39:00,79.6,64.0,29.96,SW,229,0.0,5.0,59,0.00,,,0.00,821,Wunderground v.1.15,2015-07-04 17:39:00,
2015-07-04 12:45:00,79.8,64.2,29.96,SW,229,0.0,2.0,59,0.00,,,0.00,823,Wunderground v.1.15,2015-07-04 17:45:00,
2015-07-04 12:50:00,80.1,65.4,29.96,WSW,246,4.0,5.0,61,0.00,,,0.00,819,Wunderground v.1.15,2015-07-04 17:50:00,
2015-07-04 12:55:00,80.3,63.2,29.96,WSW,240,1.0,6.0,56,0.00,,,0.00,823,Wunderground v.1.15,2015-07-04 17:55:00,
2015-07-04 13:00:00,80.5,64.4,29.96,WSW,242,0.0,2.0,58,0.00,,,0.00,824,Wunderground v.1.15,2015-07-04 18:00:00,
2015-07-04 13:05:00,79.6,63.0,29.96,SSE,161,2.0,7.0,57,0.00,,,0.00,821,Wunderground v.1.15,2015-07-04 18:05:00,
2015-07-04 13:10:00,79.0,63.4,29.96,SSE,156,1.0,3.0,59,0.00,,,0.00,823,Wunderground v.1.15,2015-07-04 18:10:00,
2015-07-04 13:15:00,78.6,63.6,29.95,SSE,155,5.0,5.0,60,0.00,,,0.00,830,Wunderground v.1.15,2015-07-04 18:15:00,
2015-07-04 13:20:00,78.4,63.8,29.95,SSE,157,4.0,4.0,61,0.00,,,0.00,824,Wunderground v.1.15,2015-07-04 18:20:00,
2015-07-04 13:25:00,78.6,64.5,29.95,South,177,1.0,4.0,62,0.00,,,0.00,831,Wunderground v.1.15,2015-07-04 18:25:00,
2015-07-04 13:30:00,79.0,63.4,29.95,WSW,252,0.0,2.0,59,0.00,,,0.00,826,Wunderground v.1.15,2015-07-04 18:30:00,
2015-07-04 13:35:00,79.5,63.9,29.95,WSW,242,0.0,8.0,59,0.00,,,0.00,826,Wunderground v.1.15,2015-07-04 18:35:00,
2015-07-04 13:40:00,80.1,64.5,29.95,WSW,244,0.0,1.0,59,0.00,,,0.00,819,Wunderground v.1.15,2015-07-04 18:40:00,
2015-07-04 13:45:00,80.5,64.4,29.95,SSE,166,0.0,3.0,58,0.00,,,0.00,824,Wunderground v.1.15,2015-07-04 18:45:00,
2015-07-04 13:50:00,80.8,63.6,29.95,WNW,297,2.0,5.0,56,0.00,,,0.00,821,Wunderground v.1.15,2015-07-04 18:50:00,
2015-07-04 13:55:00,81.1,65.4,29.95,WNW,290,0.0,5.0,59,0.00,,,0.00,826,Wunderground v.1.15,2015-07-04 18:55:00,
2015-07-04 14:00:00,81.3,65.1,29.95,West,263,0.0,3.0,58,0.00,,,0.00,833,Wunderground v.1.15,2015-07-04 19:00:00,
2015-07-04 14:05:00,81.2,65.5,29.96,SSE,163,2.0,6.0,59,0.00,,,0.00,823,Wunderground v.1.15,2015-07-04 19:05:00,
2015-07-04 14:10:00,80.5,64.4,29.95,SSE,157,0.0,2.0,58,0.00,,,0.00,800,Wunderground v.1.15,2015-07-04 19:10:00,
2015-07-04 14:16:00,80.8,65.1,29.95,WSW,248,0.0,4.0,59,0.00,,,0.00,810,Wunderground v.1.15,2015-07-04 19:16:00,
2015-07-04 14:21:00,81.1,65.4,29.95,WSW,248,0.0,2.0,59,0.00,,,0.00,809,Wunderground v.1.15,2015-07-04 19:21:00,
2015-07-04 14:26:00,81.5,65.8,29.95,WSW,248,0.0,2.0,59,0.00,,,0.00,782,Wunderground v.1.15,2015-07-04 19:26:00,
2015-07-04 14:31:00,81.7,65.5,29.95,NW,309,2.0,2.0,58,0.00,,,0.00,791,Wunderground v.1.15,2015-07-04 19:31:00,
2015-07-04 14:36:00,81.7,65.5,29.95,South,173,2.0,4.0,58,0.00,,,0.00,795,Wunderground v.1.15,2015-07-04 19:36:00,
2015-07-04 14:41:00,81.5,64.8,29.95,WSW,237,0.0,1.0,57,0.00,,,0.00,798,Wunderground v.1.15,2015-07-04 19:41:00,
2015-07-04 14:46:00,81.6,66.4,29.95,WSW,250,0.0,3.0,60,0.00,,,0.00,810,Wunderground v.1.15,2015-07-04 19:46:00,
2015-07-04 14:51:00,81.8,65.6,29.95,SSE,164,1.0,4.0,58,0.00,,,0.00,807,Wunderground v.1.15,2015-07-04 19:51:00,
2015-07-04 14:56:00,81.5,66.8,29.95,ESE,113,0.0,5.0,61,0.00,,,0.00,758,Wunderground v.1.15,2015-07-04 19:56:00,
2015-07-04 15:01:00,81.3,66.1,29.95,SSW,196,0.0,6.0,60,0.00,,,0.00,758,Wunderground v.1.15,2015-07-04 20:01:00,
2015-07-04 15:06:00,80.8,66.1,29.95,SSE,162,6.0,7.0,61,0.00,,,0.00,745,Wunderground v.1.15,2015-07-04 20:06:00,
2015-07-04 15:11:00,80.4,66.2,29.95,SW,217,2.0,4.0,62,0.00,,,0.00,717,Wunderground v.1.15,2015-07-04 20:11:00,
2015-07-04 15:16:00,80.7,66.0,29.95,WSW,243,0.0,4.0,61,0.00,,,0.00,712,Wunderground v.1.15,2015-07-04 20:16:00,
2015-07-04 15:21:00,81.1,65.9,29.95,South,184,0.0,3.0,60,0.00,,,0.00,364,Wunderground v.1.15,2015-07-04 20:21:00,
2015-07-04 15:26:00,81.1,65.9,29.95,SSE,150,0.0,4.0,60,0.00,,,0.00,355,Wunderground v.1.15,2015-07-04 20:26:00,
2015-07-04 15:31:00,81.1,65.9,29.95,SSW,207,0.0,1.0,60,0.00,,,0.00,429,Wunderground v.1.15,2015-07-04 20:31:00,
2015-07-04 15:36:00,81.0,67.7,29.95,SSE,167,0.0,5.0,64,0.00,,,0.00,737,Wunderground v.1.15,2015-07-04 20:36:00,
2015-07-04 15:41:00,80.6,67.3,29.95,South,182,0.0,2.0,64,0.00,,,0.00,376,Wunderground v.1.15,2015-07-04 20:41:00,
2015-07-04 15:46:00,80.5,66.7,29.95,SSE,167,1.0,4.0,63,0.00,,,0.00,364,Wunderground v.1.15,2015-07-04 20:46:00,
2015-07-04 15:51:00,80.3,66.6,29.94,SSE,166,0.0,3.0,63,0.00,,,0.00,698,Wunderground v.1.15,2015-07-04 20:51:00,
2015-07-04 15:56:00,80.4,67.1,29.94,South,178,0.0,3.0,64,0.00,,,0.00,469,Wunderground v.1.15,2015-07-04 20:56:00,
2015-07-04 16:01:00,80.4,67.6,29.95,South,178,0.0,1.0,65,0.00,,,0.00,666,Wunderground v.1.15,2015-07-04 21:01:00,
2015-07-04 16:06:00,80.8,67.0,29.95,WSW,237,3.0,5.0,63,0.00,,,0.00,643,Wunderground v.1.15,2015-07-04 21:06:00,
2015-07-04 16:11:00,81.3,67.0,29.95,WSW,244,9.0,9.0,62,0.00,,,0.00,638,Wunderground v.1.15,2015-07-04 21:11:00,
2015-07-04 16:16:00,81.6,65.9,29.94,SW,236,0.0,9.0,59,0.00,,,0.00,615,Wunderground v.1.15,2015-07-04 21:16:00,
2015-07-04 16:21:00,81.8,66.6,29.94,WSW,238,1.0,3.0,60,0.00,,,0.00,610,Wunderground v.1.15,2015-07-04 21:21:00,
2015-07-04 16:26:00,82.0,65.8,29.94,WSW,243,1.0,6.0,58,0.00,,,0.00,587,Wunderground v.1.15,2015-07-04 21:26:00,
2015-07-04 16:31:00,82.0,66.3,29.94,WSW,255,1.0,3.0,59,0.00,,,0.00,575,Wunderground v.1.15,2015-07-04 21:31:00,
2015-07-04 16:36:00,82.2,65.4,29.94,WSW,242,4.0,9.0,57,0.00,,,0.00,561,Wunderground v.1.15,2015-07-04 21:36:00,
2015-07-04 16:41:00,82.2,66.0,29.94,WSW,248,2.0,6.0,58,0.00,,,0.00,545,Wunderground v.1.15,2015-07-04 21:41:00,
2015-07-04 16:46:00,82.0,66.3,29.95,WSW,241,3.0,6.0,59,0.00,,,0.00,541,Wunderground v.1.15,2015-07-04 21:46:00,
2015-07-04 16:52:00,82.0,66.3,29.95,WSW,253,3.0,4.0,59,0.00,,,0.00,540,Wunderground v.1.15,2015-07-04 21:52:00,
2015-07-04 16:57:00,81.9,66.2,29.95,WSW,241,0.0,6.0,59,0.00,,,0.00,529,Wunderground v.1.15,2015-07-04 21:57:00,
2015-07-04 17:02:00,81.9,66.6,29.95,WSW,244,0.0,2.0,60,0.00,,,0.00,485,Wunderground v.1.15,2015-07-04 22:02:00,
2015-07-04 17:07:00,81.9,67.6,29.94,WSW,245,3.0,3.0,62,0.00,,,0.00,297,Wunderground v.1.15,2015-07-04 22:07:00,
2015-07-04 17:12:00,81.7,66.5,29.95,WSW,247,0.0,0.0,60,0.00,,,0.00,462,Wunderground v.1.15,2015-07-04 22:12:00,
2015-07-04 17:17:00,81.7,67.4,29.94,WSW,250,0.0,2.0,62,0.00,,,0.00,464,Wunderground v.1.15,2015-07-04 22:17:00,
2015-07-04 17:22:00,81.7,66.0,29.94,WSW,249,0.0,4.0,59,0.00,,,0.00,272,Wunderground v.1.15,2015-07-04 22:22:00,
2015-07-04 17:27:00,81.5,66.8,29.94,WSW,249,0.0,4.0,61,0.00,,,0.00,411,Wunderground v.1.15,2015-07-04 22:27:00,
2015-07-04 17:32:00,81.6,66.4,29.94,WSW,250,2.0,6.0,60,0.00,,,0.00,406,Wunderground v.1.15,2015-07-04 22:32:00,
2015-07-04 17:37:00,81.6,66.4,29.94,WSW,248,2.0,6.0,60,0.00,,,0.00,396,Wunderground v.1.15,2015-07-04 22:37:00,
2015-07-04 17:42:00,81.6,65.9,29.94,West,261,0.0,5.0,59,0.00,,,0.00,371,Wunderground v.1.15,2015-07-04 22:42:00,
2015-07-04 17:47:00,81.5,65.8,29.94,WSW,257,0.0,6.0,59,0.00,,,0.00,341,Wunderground v.1.15,2015-07-04 22:47:00,
2015-07-04 17:52:00,81.3,65.6,29.94,WSW,250,3.0,7.0,59,0.00,,,0.00,320,Wunderground v.1.15,2015-07-04 22:52:00,
2015-07-04 17:57:00,81.1,65.4,29.94,WSW,253,1.0,7.0,59,0.00,,,0.00,309,Wunderground v.1.15,2015-07-04 22:57:00,
2015-07-04 18:02:00,81.1,65.4,29.94,SW,225,1.0,5.0,59,0.00,,,0.00,290,Wunderground v.1.15,2015-07-04 23:02:00,
2015-07-04 18:07:00,80.9,65.7,29.94,WSW,242,1.0,5.0,60,0.00,,,0.00,271,Wunderground v.1.15,2015-07-04 23:07:00,
2015-07-04 18:12:00,80.6,64.9,29.94,SW,234,4.0,6.0,59,0.00,,,0.00,251,Wunderground v.1.15,2015-07-04 23:12:00,
2015-07-04 18:17:00,80.5,64.9,29.94,WSW,240,0.0,6.0,59,0.00,,,0.00,227,Wunderground v.1.15,2015-07-04 23:17:00,
2015-07-04 18:23:00,80.4,65.2,29.94,WSW,240,0.0,3.0,60,0.00,,,0.00,241,Wunderground v.1.15,2015-07-04 23:23:00,
2015-07-04 18:28:00,80.4,65.7,29.94,WSW,239,0.0,4.0,61,0.00,,,0.00,223,Wunderground v.1.15,2015-07-04 23:28:00,
2015-07-04 18:33:00,80.4,65.7,29.94,WSW,239,0.0,3.0,61,0.00,,,0.00,202,Wunderground v.1.15,2015-07-04 23:33:00,
2015-07-04 18:38:00,80.2,65.5,29.94,WSW,239,2.0,3.0,61,0.00,,,0.00,186,Wunderground v.1.15,2015-07-04 23:38:00,
2015-07-04 18:43:00,80.2,65.5,29.94,WSW,239,0.0,4.0,61,0.00,,,0.00,132,Wunderground v.1.15,2015-07-04 23:43:00,
2015-07-04 18:48:00,80.1,65.4,29.94,WSW,239,0.0,4.0,61,0.00,,,0.00,128,Wunderground v.1.15,2015-07-04 23:48:00,
2015-07-04 18:53:00,79.8,65.6,29.94,WSW,240,5.0,5.0,62,0.00,,,0.00,121,Wunderground v.1.15,2015-07-04 23:53:00,
2015-07-04 18:58:00,79.6,65.0,29.94,WSW,253,3.0,5.0,61,0.00,,,0.00,127,Wunderground v.1.15,2015-07-04 23:58:00,
2015-07-04 19:03:00,79.3,65.1,29.94,WSW,252,2.0,4.0,62,0.00,,,0.00,127,Wunderground v.1.15,2015-07-05 00:03:00,
2015-07-04 19:08:00,79.2,65.1,29.94,WSW,252,0.0,4.0,62,0.00,,,0.00,125,Wunderground v.1.15,2015-07-05 00:08:00,
2015-07-04 19:13:00,79.0,64.9,29.94,WSW,252,2.0,3.0,62,0.00,,,0.00,113,Wunderground v.1.15,2015-07-05 00:13:00,
2015-07-04 19:18:00,78.9,65.2,29.93,WSW,252,0.0,3.0,63,0.00,,,0.00,100,Wunderground v.1.15,2015-07-05 00:18:00,
2015-07-04 19:24:00,78.7,65.5,29.94,WSW,252,0.0,1.0,64,0.00,,,0.00,91,Wunderground v.1.15,2015-07-05 00:24:00,
2015-07-04 19:29:00,78.5,64.9,29.94,WSW,252,0.0,1.0,63,0.00,,,0.00,83,Wunderground v.1.15,2015-07-05 00:29:00,
2015-07-04 19:33:00,78.4,65.2,29.94,WSW,252,0.0,0.0,64,0.00,,,0.00,74,Wunderground v.1.15,2015-07-05 00:33:00,
2015-07-04 19:39:00,78.2,65.0,29.94,WSW,252,0.0,1.0,64,0.00,,,0.00,65,Wunderground v.1.15,2015-07-05 00:39:00,
2015-07-04 19:44:00,77.9,64.7,29.93,WSW,252,0.0,0.0,64,0.00,,,0.00,56,Wunderground v.1.15,2015-07-05 00:44:00,
2015-07-04 19:49:00,77.7,65.0,29.93,WSW,238,0.0,1.0,65,0.00,,,0.00,49,Wunderground v.1.15,2015-07-05 00:49:00,
2015-07-04 19:54:00,77.2,64.5,29.93,SW,234,0.0,0.0,65,0.00,,,0.00,44,Wunderground v.1.15,2015-07-05 00:54:00,
2015-07-04 19:59:00,76.8,64.6,29.93,WSW,237,0.0,0.0,66,0.00,,,0.00,37,Wunderground v.1.15,2015-07-05 00:59:00,
2015-07-04 20:04:00,76.6,64.4,29.93,WSW,238,0.0,0.0,66,0.00,,,0.00,32,Wunderground v.1.15,2015-07-05 01:04:00,
2015-07-04 20:09:00,76.3,64.5,29.94,WSW,238,0.0,0.0,67,0.00,,,0.00,26,Wunderground v.1.15,2015-07-05 01:09:00,
2015-07-04 20:14:00,76.1,64.3,29.94,WSW,246,0.0,0.0,67,0.00,,,0.00,23,Wunderground v.1.15,2015-07-05 01:14:00,
2015-07-04 20:19:00,75.9,64.2,29.93,WSW,254,0.0,0.0,67,0.00,,,0.00,18,Wunderground v.1.15,2015-07-05 01:19:00,
2015-07-04 20:24:00,75.7,64.4,29.93,WSW,254,0.0,0.0,68,0.00,,,0.00,11,Wunderground v.1.15,2015-07-05 01:24:00,
2015-07-04 20:29:00,75.4,64.1,29.93,WSW,253,0.0,0.0,68,0.00,,,0.00,7,Wunderground v.1.15,2015-07-05 01:29:00,
2015-07-04 20:34:00,75.1,63.8,29.93,WSW,253,0.0,0.0,68,0.00,,,0.00,5,Wunderground v.1.15,2015-07-05 01:34:00,
2015-07-04 20:39:00,74.9,63.2,29.94,WSW,253,0.0,0.0,67,0.00,,,0.00,0,Wunderground v.1.15,2015-07-05 01:39:00,
2015-07-04 20:44:00,74.7,63.0,29.94,WSW,253,0.0,0.0,67,0.00,,,0.00,0,Wunderground v.1.15,2015-07-05 01:44:00,
2015-07-04 20:49:00,74.4,63.1,29.94,WSW,253,0.0,0.0,68,0.00,,,0.00,0,Wunderground v.1.15,2015-07-05 01:49:00,
2015-07-04 20:54:00,74.1,62.9,29.94,WSW,254,0.0,0.0,68,0.00,,,0.00,0,Wunderground v.1.15,2015-07-05 01:54:00,
2015-07-04 20:59:00,73.8,63.0,29.94,WSW,254,0.0,0.0,69,0.00,,,0.00,0,Wunderground v.1.15,2015-07-05 01:59:00,
2015-07-04 21:04:00,73.5,62.7,29.94,WSW,254,0.0,0.0,69,0.00,,,0.00,0,Wunderground v.1.15,2015-07-05 02:04:00,
2015-07-04 21:09:00,73.2,62.4,29.94,WSW,254,0.0,0.0,69,0.00,,,0.00,0,Wunderground v.1.15,2015-07-05 02:09:00,
2015-07-04 21:14:00,72.9,62.5,29.94,WSW,254,0.0,0.0,70,0.00,,,0.00,0,Wunderground v.1.15,2015-07-05 02:14:00,
2015-07-04 21:19:00,72.6,62.3,29.94,WSW,254,0.0,0.0,70,0.00,,,0.00,0,Wunderground v.1.15,2015-07-05 02:19:00,
2015-07-04 21:24:00,72.2,62.3,29.95,WSW,254,0.0,0.0,71,0.00,,,0.00,0,Wunderground v.1.15,2015-07-05 02:24:00,
2015-07-04 21:29:00,71.9,62.0,29.95,WSW,252,0.0,0.0,71,0.00,,,0.00,0,Wunderground v.1.15,2015-07-05 02:29:00,
2015-07-04 21:34:00,71.5,62.4,29.95,WSW,256,0.0,0.0,73,0.00,,,0.00,0,Wunderground v.1.15,2015-07-05 02:34:00,
2015-07-04 21:39:00,71.1,62.4,29.95,West,261,0.0,0.0,74,0.00,,,0.00,0,Wunderground v.1.15,2015-07-05 02:39:00,
2015-07-04 21:44:00,70.6,62.3,29.95,West,263,0.0,0.0,75,0.00,,,0.00,0,Wunderground v.1.15,2015-07-05 02:44:00,
2015-07-04 21:49:00,70.2,62.3,29.95,West,263,0.0,0.0,76,0.00,,,0.00,0,Wunderground v.1.15,2015-07-05 02:49:00,
2015-07-04 21:54:00,69.7,61.4,29.95,West,264,0.0,0.0,75,0.00,,,0.00,0,Wunderground v.1.15,2015-07-05 02:54:00,
2015-07-04 22:00:00,69.4,60.8,29.95,West,263,0.0,0.0,74,0.00,,,0.00,0,Wunderground v.1.15,2015-07-05 03:00:00,
2015-07-04 22:05:00,69.1,60.8,29.95,West,267,0.0,0.0,75,0.00,,,0.00,0,Wunderground v.1.15,2015-07-05 03:05:00,
2015-07-04 22:10:00,68.8,60.9,29.95,West,271,0.0,0.0,76,0.00,,,0.00,0,Wunderground v.1.15,2015-07-05 03:10:00,
2015-07-04 22:15:00,68.5,61.0,29.95,West,271,0.0,0.0,77,0.00,,,0.00,0,Wunderground v.1.15,2015-07-05 03:15:00,
2015-07-04 22:20:00,68.4,62.0,29.96,West,271,0.0,0.0,80,0.00,,,0.00,0,Wunderground v.1.15,2015-07-05 03:20:00,
2015-07-04 22:25:00,68.1,61.7,29.96,West,271,0.0,0.0,80,0.00,,,0.00,0,Wunderground v.1.15,2015-07-05 03:25:00,
2015-07-04 22:30:00,67.9,61.5,29.96,West,271,0.0,0.0,80,0.00,,,0.00,0,Wunderground v.1.15,2015-07-05 03:30:00,
2015-07-04 22:35:00,67.6,61.9,29.96,West,271,0.0,0.0,82,0.00,,,0.00,0,Wunderground v.1.15,2015-07-05 03:35:00,
2015-07-04 22:40:00,67.2,61.5,29.96,West,271,0.0,0.0,82,0.00,,,0.00,0,Wunderground v.1.15,2015-07-05 03:40:00,
2015-07-04 22:45:00,66.9,61.6,29.96,West,271,0.0,0.0,83,0.00,,,0.00,0,Wunderground v.1.15,2015-07-05 03:45:00,
2015-07-04 22:50:00,66.7,61.4,29.97,West,271,0.0,0.0,83,0.00,,,0.00,0,Wunderground v.1.15,2015-07-05 03:50:00,
2015-07-04 22:55:00,66.5,61.2,29.97,West,271,0.0,0.0,83,0.00,,,0.00,0,Wunderground v.1.15,2015-07-05 03:55:00,
2015-07-04 23:00:00,66.3,61.3,29.97,West,271,0.0,0.0,84,0.00,,,0.00,0,Wunderground v.1.15,2015-07-05 04:00:00,
2015-07-04 23:05:00,66.1,61.1,29.97,West,271,0.0,0.0,84,0.00,,,0.00,0,Wunderground v.1.15,2015-07-05 04:05:00,
2015-07-04 23:10:00,65.9,60.9,29.97,West,271,0.0,0.0,84,0.00,,,0.00,0,Wunderground v.1.15,2015-07-05 04:10:00,
2015-07-04 23:15:00,65.6,60.3,29.97,West,271,0.0,0.0,83,0.00,,,0.00,0,Wunderground v.1.15,2015-07-05 04:15:00,
2015-07-04 23:20:00,65.4,60.1,29.97,West,271,0.0,0.0,83,0.00,,,0.00,0,Wunderground v.1.15,2015-07-05 04:20:00,
2015-07-04 23:25:00,65.3,60.7,29.97,West,271,0.0,0.0,85,0.00,,,0.00,0,Wunderground v.1.15,2015-07-05 04:25:00,